sensor_id;sensor_type;location;lat;lon;timestamp;temperature;humidity
2439;DHT22;14509;47.992;7.848;2023-01-15T00:01:38;18.00;44.50
2439;DHT22;14509;47.992;7.848;2023-01-15T00:03:42;18.00;44.70
2439;DHT22;14509;47.992;7.848;2023-01-15T00:05:44;17.90;44.70
2439;DHT22;14509;47.992;7.848;2023-01-15T00:07:46;17.90;45.00
2439;DHT22;14509;47.992;7.848;2023-01-15T00:09:49;17.80;45.40
2439;DHT22;14509;47.992;7.848;2023-01-15T00:11:50;17.80;45.70
2439;DHT22;14509;47.992;7.848;2023-01-15T00:13:52;17.80;45.90
2439;DHT22;14509;47.992;7.848;2023-01-15T00:16:01;17.70;47.10
2439;DHT22;14509;47.992;7.848;2023-01-15T00:18:03;17.50;48.00
2439;DHT22;14509;47.992;7.848;2023-01-15T00:20:08;17.40;49.30
2439;DHT22;14509;47.992;7.848;2023-01-15T00:22:10;17.30;49.70
2439;DHT22;14509;47.992;7.848;2023-01-15T00:24:12;17.20;50.10
2439;DHT22;14509;47.992;7.848;2023-01-15T00:26:33;17.10;50.70
2439;DHT22;14509;47.992;7.848;2023-01-15T00:28:52;16.90;51.60
2439;DHT22;14509;47.992;7.848;2023-01-15T00:30:54;16.70;52.40
2439;DHT22;14509;47.992;7.848;2023-01-15T00:32:56;16.50;53.30
2439;DHT22;14509;47.992;7.848;2023-01-15T00:34:59;16.30;53.90
2439;DHT22;14509;47.992;7.848;2023-01-15T00:37:03;16.20;55.10
2439;DHT22;14509;47.992;7.848;2023-01-15T00:39:06;16.00;55.50
2439;DHT22;14509;47.992;7.848;2023-01-15T00:41:08;15.90;55.80
2439;DHT22;14509;47.992;7.848;2023-01-15T00:43:10;15.90;56.40
2439;DHT22;14509;47.992;7.848;2023-01-15T00:45:12;15.90;56.60
2439;DHT22;14509;47.992;7.848;2023-01-15T00:47:14;15.90;56.70
2439;DHT22;14509;47.992;7.848;2023-01-15T00:49:17;15.90;56.60
2439;DHT22;14509;47.992;7.848;2023-01-15T00:51:18;16.00;56.90
2439;DHT22;14509;47.992;7.848;2023-01-15T00:53:22;15.80;57.00
2439;DHT22;14509;47.992;7.848;2023-01-15T00:55:24;15.70;57.40
2439;DHT22;14509;47.992;7.848;2023-01-15T00:57:26;15.80;57.40
2439;DHT22;14509;47.992;7.848;2023-01-15T00:59:28;15.80;57.80
2439;DHT22;14509;47.992;7.848;2023-01-15T01:01:31;15.70;57.50
2439;DHT22;14509;47.992;7.848;2023-01-15T01:03:33;16.10;57.70
2439;DHT22;14509;47.992;7.848;2023-01-15T01:05:37;15.90;57.60
2439;DHT22;14509;47.992;7.848;2023-01-15T01:07:39;16.00;57.40
2439;DHT22;14509;47.992;7.848;2023-01-15T01:09:42;15.70;57.30
2439;DHT22;14509;47.992;7.848;2023-01-15T01:11:44;15.70;57.40
2439;DHT22;14509;47.992;7.848;2023-01-15T01:13:46;16.00;57.50
2439;DHT22;14509;47.992;7.848;2023-01-15T01:15:48;15.60;57.40
2439;DHT22;14509;47.992;7.848;2023-01-15T01:17:50;15.70;56.90
2439;DHT22;14509;47.992;7.848;2023-01-15T01:19:52;15.80;57.10
2439;DHT22;14509;47.992;7.848;2023-01-15T01:21:54;15.70;56.90
2439;DHT22;14509;47.992;7.848;2023-01-15T01:23:57;15.70;57.00
2439;DHT22;14509;47.992;7.848;2023-01-15T01:26:00;15.90;56.90
2439;DHT22;14509;47.992;7.848;2023-01-15T01:28:02;15.90;56.50
2439;DHT22;14509;47.992;7.848;2023-01-15T01:30:05;15.90;56.20
2439;DHT22;14509;47.992;7.848;2023-01-15T01:32:07;16.00;56.10
2439;DHT22;14509;47.992;7.848;2023-01-15T01:34:11;16.10;55.70
2439;DHT22;14509;47.992;7.848;2023-01-15T01:36:13;16.10;55.40
2439;DHT22;14509;47.992;7.848;2023-01-15T01:38:15;16.20;55.50
2439;DHT22;14509;47.992;7.848;2023-01-15T01:40:17;16.20;55.30
2439;DHT22;14509;47.992;7.848;2023-01-15T01:42:21;16.40;55.20
2439;DHT22;14509;47.992;7.848;2023-01-15T01:45:02;16.40;54.70
2439;DHT22;14509;47.992;7.848;2023-01-15T01:47:07;16.60;54.70
2439;DHT22;14509;47.992;7.848;2023-01-15T01:49:11;16.50;54.30
2439;DHT22;14509;47.992;7.848;2023-01-15T01:51:14;16.60;54.20
2439;DHT22;14509;47.992;7.848;2023-01-15T01:53:21;16.80;54.00
2439;DHT22;14509;47.992;7.848;2023-01-15T01:55:24;17.00;53.40
2439;DHT22;14509;47.992;7.848;2023-01-15T01:57:28;16.90;53.20
2439;DHT22;14509;47.992;7.848;2023-01-15T01:59:32;17.40;53.30
2439;DHT22;14509;47.992;7.848;2023-01-15T02:01:34;17.20;52.70
2439;DHT22;14509;47.992;7.848;2023-01-15T02:03:37;17.20;52.00
2439;DHT22;14509;47.992;7.848;2023-01-15T02:05:43;17.20;51.90
2439;DHT22;14509;47.992;7.848;2023-01-15T02:07:46;17.10;51.70
2439;DHT22;14509;47.992;7.848;2023-01-15T02:09:48;17.50;51.80
2439;DHT22;14509;47.992;7.848;2023-01-15T02:11:51;17.40;51.30
2439;DHT22;14509;47.992;7.848;2023-01-15T02:14:00;17.40;51.00
2439;DHT22;14509;47.992;7.848;2023-01-15T02:16:12;17.70;51.30
2439;DHT22;14509;47.992;7.848;2023-01-15T02:18:21;17.50;50.80
2439;DHT22;14509;47.992;7.848;2023-01-15T02:20:29;17.60;50.50
2439;DHT22;14509;47.992;7.848;2023-01-15T02:22:39;17.70;50.70
2439;DHT22;14509;47.992;7.848;2023-01-15T02:24:54;17.60;50.40
2439;DHT22;14509;47.992;7.848;2023-01-15T02:27:09;17.80;50.80
2439;DHT22;14509;47.992;7.848;2023-01-15T02:29:18;17.60;50.10
2439;DHT22;14509;47.992;7.848;2023-01-15T02:31:26;17.60;49.90
2439;DHT22;14509;47.992;7.848;2023-01-15T02:33:32;17.40;50.10
2439;DHT22;14509;47.992;7.848;2023-01-15T02:35:39;17.40;50.50
2439;DHT22;14509;47.992;7.848;2023-01-15T02:37:48;17.50;50.30
2439;DHT22;14509;47.992;7.848;2023-01-15T02:39:51;17.60;50.30
2439;DHT22;14509;47.992;7.848;2023-01-15T02:42:00;17.80;50.00
2439;DHT22;14509;47.992;7.848;2023-01-15T02:44:09;17.60;50.00
2439;DHT22;14509;47.992;7.848;2023-01-15T02:46:14;17.70;50.50
2439;DHT22;14509;47.992;7.848;2023-01-15T02:48:19;17.50;50.70
2439;DHT22;14509;47.992;7.848;2023-01-15T02:50:26;17.50;51.10
2439;DHT22;14509;47.992;7.848;2023-01-15T02:52:33;17.60;51.20
2439;DHT22;14509;47.992;7.848;2023-01-15T02:54:42;17.60;51.40
2439;DHT22;14509;47.992;7.848;2023-01-15T02:56:46;17.50;51.40
2439;DHT22;14509;47.992;7.848;2023-01-15T02:58:53;17.30;51.50
2439;DHT22;14509;47.992;7.848;2023-01-15T03:00:59;17.50;51.80
2439;DHT22;14509;47.992;7.848;2023-01-15T03:03:06;17.50;52.30
2439;DHT22;14509;47.992;7.848;2023-01-15T03:05:16;17.50;51.60
2439;DHT22;14509;47.992;7.848;2023-01-15T03:07:24;17.50;51.70
2439;DHT22;14509;47.992;7.848;2023-01-15T03:09:27;17.50;51.60
2439;DHT22;14509;47.992;7.848;2023-01-15T03:11:32;17.30;51.80
2439;DHT22;14509;47.992;7.848;2023-01-15T03:13:45;17.40;53.30
2439;DHT22;14509;47.992;7.848;2023-01-15T03:15:52;17.20;53.30
2439;DHT22;14509;47.992;7.848;2023-01-15T03:18:16;17.10;53.50
2439;DHT22;14509;47.992;7.848;2023-01-15T03:20:24;17.00;53.60
2439;DHT22;14509;47.992;7.848;2023-01-15T03:22:30;16.90;53.80
2439;DHT22;14509;47.992;7.848;2023-01-15T03:24:39;16.80;53.90
2439;DHT22;14509;47.992;7.848;2023-01-15T03:26:42;16.70;54.00
2439;DHT22;14509;47.992;7.848;2023-01-15T03:28:46;16.60;54.30
2439;DHT22;14509;47.992;7.848;2023-01-15T03:30:49;16.50;54.80
2439;DHT22;14509;47.992;7.848;2023-01-15T03:32:53;16.40;54.50
2439;DHT22;14509;47.992;7.848;2023-01-15T03:34:57;16.30;54.70
2439;DHT22;14509;47.992;7.848;2023-01-15T03:37:01;16.30;54.90
2439;DHT22;14509;47.992;7.848;2023-01-15T03:39:03;16.30;55.00
2439;DHT22;14509;47.992;7.848;2023-01-15T03:41:29;16.40;54.70
2439;DHT22;14509;47.992;7.848;2023-01-15T03:43:40;16.40;54.90
2439;DHT22;14509;47.992;7.848;2023-01-15T03:45:49;16.50;54.90
2439;DHT22;14509;47.992;7.848;2023-01-15T03:47:58;16.60;54.40
2439;DHT22;14509;47.992;7.848;2023-01-15T03:50:09;16.50;53.90
2439;DHT22;14509;47.992;7.848;2023-01-15T03:52:21;17.00;54.20
2439;DHT22;14509;47.992;7.848;2023-01-15T03:54:35;16.60;53.60
2439;DHT22;14509;47.992;7.848;2023-01-15T03:56:43;16.60;53.50
2439;DHT22;14509;47.992;7.848;2023-01-15T03:58:59;16.70;53.50
2439;DHT22;14509;47.992;7.848;2023-01-15T04:01:22;16.70;53.60
2439;DHT22;14509;47.992;7.848;2023-01-15T04:03:27;16.80;53.30
2439;DHT22;14509;47.992;7.848;2023-01-15T04:05:33;16.80;52.90
2439;DHT22;14509;47.992;7.848;2023-01-15T04:07:36;16.80;53.10
2439;DHT22;14509;47.992;7.848;2023-01-15T04:09:39;16.80;52.70
2439;DHT22;14509;47.992;7.848;2023-01-15T04:11:43;16.80;53.00
2439;DHT22;14509;47.992;7.848;2023-01-15T04:13:46;17.00;53.60
2439;DHT22;14509;47.992;7.848;2023-01-15T04:16:02;16.90;54.10
2439;DHT22;14509;47.992;7.848;2023-01-15T04:18:04;16.90;53.80
2439;DHT22;14509;47.992;7.848;2023-01-15T04:20:08;16.80;54.00
2439;DHT22;14509;47.992;7.848;2023-01-15T04:22:15;16.70;54.40
2439;DHT22;14509;47.992;7.848;2023-01-15T04:24:17;16.60;54.80
2439;DHT22;14509;47.992;7.848;2023-01-15T04:26:19;16.70;55.10
2439;DHT22;14509;47.992;7.848;2023-01-15T04:28:21;16.50;55.50
2439;DHT22;14509;47.992;7.848;2023-01-15T04:30:23;16.30;56.00
2439;DHT22;14509;47.992;7.848;2023-01-15T04:32:25;16.20;56.40
2439;DHT22;14509;47.992;7.848;2023-01-15T04:34:28;16.00;56.90
2439;DHT22;14509;47.992;7.848;2023-01-15T04:36:30;15.90;57.10
2439;DHT22;14509;47.992;7.848;2023-01-15T04:38:37;15.80;57.10
2439;DHT22;14509;47.992;7.848;2023-01-15T04:40:38;15.80;57.50
2439;DHT22;14509;47.992;7.848;2023-01-15T04:42:58;15.80;58.00
2439;DHT22;14509;47.992;7.848;2023-01-15T04:45:18;15.70;57.50
2439;DHT22;14509;47.992;7.848;2023-01-15T04:47:20;15.80;57.50
2439;DHT22;14509;47.992;7.848;2023-01-15T04:49:22;15.80;57.10
2439;DHT22;14509;47.992;7.848;2023-01-15T04:51:24;15.80;57.60
2439;DHT22;14509;47.992;7.848;2023-01-15T04:53:26;16.00;57.80
2439;DHT22;14509;47.992;7.848;2023-01-15T04:55:29;15.90;57.20
2439;DHT22;14509;47.992;7.848;2023-01-15T04:57:31;15.80;57.30
2439;DHT22;14509;47.992;7.848;2023-01-15T04:59:34;15.80;57.80
2439;DHT22;14509;47.992;7.848;2023-01-15T05:01:37;16.00;58.40
2439;DHT22;14509;47.992;7.848;2023-01-15T05:03:39;15.80;58.30
2439;DHT22;14509;47.992;7.848;2023-01-15T05:05:41;15.80;58.80
2439;DHT22;14509;47.992;7.848;2023-01-15T05:07:43;15.70;58.90
2439;DHT22;14509;47.992;7.848;2023-01-15T05:09:45;15.70;58.70
2439;DHT22;14509;47.992;7.848;2023-01-15T05:11:52;15.80;58.90
2439;DHT22;14509;47.992;7.848;2023-01-15T05:13:54;15.80;58.30
2439;DHT22;14509;47.992;7.848;2023-01-15T05:15:56;15.80;58.40
2439;DHT22;14509;47.992;7.848;2023-01-15T05:17:58;15.60;58.00
2439;DHT22;14509;47.992;7.848;2023-01-15T05:20:00;15.50;58.40
2439;DHT22;14509;47.992;7.848;2023-01-15T05:22:02;15.40;58.60
2439;DHT22;14509;47.992;7.848;2023-01-15T05:24:05;15.40;58.80
2439;DHT22;14509;47.992;7.848;2023-01-15T05:26:08;15.30;59.30
2439;DHT22;14509;47.992;7.848;2023-01-15T05:28:11;14.90;59.70
2439;DHT22;14509;47.992;7.848;2023-01-15T05:30:13;15.10;59.80
2439;DHT22;14509;47.992;7.848;2023-01-15T05:32:15;15.10;59.30
2439;DHT22;14509;47.992;7.848;2023-01-15T05:34:17;15.20;59.00
2439;DHT22;14509;47.992;7.848;2023-01-15T05:36:20;15.10;57.90
2439;DHT22;14509;47.992;7.848;2023-01-15T05:38:23;15.20;58.10
2439;DHT22;14509;47.992;7.848;2023-01-15T05:40:24;15.30;57.90
2439;DHT22;14509;47.992;7.848;2023-01-15T05:42:26;15.40;57.20
2439;DHT22;14509;47.992;7.848;2023-01-15T05:44:30;15.50;57.00
2439;DHT22;14509;47.992;7.848;2023-01-15T05:46:33;15.50;57.00
2439;DHT22;14509;47.992;7.848;2023-01-15T05:48:35;15.80;57.00
2439;DHT22;14509;47.992;7.848;2023-01-15T05:50:37;15.80;56.40
2439;DHT22;14509;47.992;7.848;2023-01-15T05:52:39;15.90;56.00
2439;DHT22;14509;47.992;7.848;2023-01-15T05:54:40;16.00;55.30
2439;DHT22;14509;47.992;7.848;2023-01-15T05:56:43;16.10;55.10
2439;DHT22;14509;47.992;7.848;2023-01-15T05:58:46;16.20;54.80
2439;DHT22;14509;47.992;7.848;2023-01-15T06:00:49;16.30;54.70
2439;DHT22;14509;47.992;7.848;2023-01-15T06:02:51;16.40;54.20
2439;DHT22;14509;47.992;7.848;2023-01-15T06:04:53;16.70;54.50
2439;DHT22;14509;47.992;7.848;2023-01-15T06:06:55;16.60;53.60
2439;DHT22;14509;47.992;7.848;2023-01-15T06:08:58;16.70;53.60
2439;DHT22;14509;47.992;7.848;2023-01-15T06:10:59;17.10;53.50
2439;DHT22;14509;47.992;7.848;2023-01-15T06:13:01;16.70;53.20
2439;DHT22;14509;47.992;7.848;2023-01-15T06:15:04;16.80;53.60
2439;DHT22;14509;47.992;7.848;2023-01-15T06:17:07;16.80;53.70
2439;DHT22;14509;47.992;7.848;2023-01-15T06:19:11;17.30;54.40
2439;DHT22;14509;47.992;7.848;2023-01-15T06:21:13;16.40;54.20
2439;DHT22;14509;47.992;7.848;2023-01-15T06:23:16;16.00;55.70
2439;DHT22;14509;47.992;7.848;2023-01-15T06:25:18;15.70;57.20
2439;DHT22;14509;47.992;7.848;2023-01-15T06:27:20;15.80;58.40
2439;DHT22;14509;47.992;7.848;2023-01-15T06:29:22;15.50;58.90
2439;DHT22;14509;47.992;7.848;2023-01-15T06:31:24;15.10;59.30
2439;DHT22;14509;47.992;7.848;2023-01-15T06:33:28;15.00;59.80
2439;DHT22;14509;47.992;7.848;2023-01-15T06:35:30;14.90;60.00
2439;DHT22;14509;47.992;7.848;2023-01-15T06:37:32;14.80;60.90
2439;DHT22;14509;47.992;7.848;2023-01-15T06:39:34;14.70;62.00
2439;DHT22;14509;47.992;7.848;2023-01-15T06:41:36;14.70;63.00
2439;DHT22;14509;47.992;7.848;2023-01-15T06:43:56;14.50;64.20
2439;DHT22;14509;47.992;7.848;2023-01-15T06:46:16;14.40;64.10
2439;DHT22;14509;47.992;7.848;2023-01-15T06:48:37;14.30;63.80
2439;DHT22;14509;47.992;7.848;2023-01-15T06:50:39;14.20;63.60
2439;DHT22;14509;47.992;7.848;2023-01-15T06:52:40;14.20;63.30
2439;DHT22;14509;47.992;7.848;2023-01-15T06:54:42;14.40;62.90
2439;DHT22;14509;47.992;7.848;2023-01-15T06:56:44;14.20;62.30
2439;DHT22;14509;47.992;7.848;2023-01-15T06:58:46;14.10;61.30
2439;DHT22;14509;47.992;7.848;2023-01-15T07:00:48;14.10;60.60
2439;DHT22;14509;47.992;7.848;2023-01-15T07:02:55;14.00;60.60
2439;DHT22;14509;47.992;7.848;2023-01-15T07:05:01;14.40;61.50
2439;DHT22;14509;47.992;7.848;2023-01-15T07:07:03;14.10;61.40
2439;DHT22;14509;47.992;7.848;2023-01-15T07:09:05;14.00;61.50
2439;DHT22;14509;47.992;7.848;2023-01-15T07:11:08;13.90;62.10
2439;DHT22;14509;47.992;7.848;2023-01-15T07:13:10;14.00;62.40
2439;DHT22;14509;47.992;7.848;2023-01-15T07:15:13;14.80;62.80
2439;DHT22;14509;47.992;7.848;2023-01-15T07:17:15;14.00;60.50
2439;DHT22;14509;47.992;7.848;2023-01-15T07:19:17;13.80;59.80
2439;DHT22;14509;47.992;7.848;2023-01-15T07:21:21;13.60;59.80
2439;DHT22;14509;47.992;7.848;2023-01-15T07:23:23;13.50;59.80
2439;DHT22;14509;47.992;7.848;2023-01-15T07:25:25;13.40;60.30
2439;DHT22;14509;47.992;7.848;2023-01-15T07:27:27;13.70;61.40
2439;DHT22;14509;47.992;7.848;2023-01-15T07:29:29;13.10;61.50
2439;DHT22;14509;47.992;7.848;2023-01-15T07:31:31;13.00;62.00
2439;DHT22;14509;47.992;7.848;2023-01-15T07:33:33;12.90;62.40
2439;DHT22;14509;47.992;7.848;2023-01-15T07:35:35;12.90;62.80
2439;DHT22;14509;47.992;7.848;2023-01-15T07:37:38;12.70;62.90
2439;DHT22;14509;47.992;7.848;2023-01-15T07:39:40;12.70;63.00
2439;DHT22;14509;47.992;7.848;2023-01-15T07:41:42;12.70;63.00
2439;DHT22;14509;47.992;7.848;2023-01-15T07:44:03;12.70;63.10
2439;DHT22;14509;47.992;7.848;2023-01-15T07:46:23;12.70;63.30
2439;DHT22;14509;47.992;7.848;2023-01-15T07:48:42;12.70;63.30
2439;DHT22;14509;47.992;7.848;2023-01-15T07:51:02;12.60;63.10
2439;DHT22;14509;47.992;7.848;2023-01-15T07:53:05;12.60;63.10
2439;DHT22;14509;47.992;7.848;2023-01-15T07:55:08;12.60;63.30
2439;DHT22;14509;47.992;7.848;2023-01-15T07:57:13;12.60;63.40
2439;DHT22;14509;47.992;7.848;2023-01-15T07:59:15;12.60;63.50
2439;DHT22;14509;47.992;7.848;2023-01-15T08:01:18;12.60;63.50
2439;DHT22;14509;47.992;7.848;2023-01-15T08:03:19;12.50;63.40
2439;DHT22;14509;47.992;7.848;2023-01-15T08:05:21;12.60;63.40
2439;DHT22;14509;47.992;7.848;2023-01-15T08:07:23;12.60;63.30
2439;DHT22;14509;47.992;7.848;2023-01-15T08:09:27;12.60;63.20
2439;DHT22;14509;47.992;7.848;2023-01-15T08:11:29;12.60;63.30
2439;DHT22;14509;47.992;7.848;2023-01-15T08:13:51;12.60;63.20
2439;DHT22;14509;47.992;7.848;2023-01-15T08:16:13;12.90;63.40
2439;DHT22;14509;47.992;7.848;2023-01-15T08:18:14;12.60;63.00
2439;DHT22;14509;47.992;7.848;2023-01-15T08:20:18;12.70;63.10
2439;DHT22;14509;47.992;7.848;2023-01-15T08:22:20;12.60;63.00
2439;DHT22;14509;47.992;7.848;2023-01-15T08:24:22;12.60;62.70
2439;DHT22;14509;47.992;7.848;2023-01-15T08:26:26;12.60;62.80
2439;DHT22;14509;47.992;7.848;2023-01-15T08:28:27;12.60;63.50
2439;DHT22;14509;47.992;7.848;2023-01-15T08:30:29;12.60;62.70
2439;DHT22;14509;47.992;7.848;2023-01-15T08:32:31;12.60;62.70
2439;DHT22;14509;47.992;7.848;2023-01-15T08:34:33;12.60;62.80
2439;DHT22;14509;47.992;7.848;2023-01-15T08:36:35;12.60;62.90
2439;DHT22;14509;47.992;7.848;2023-01-15T08:38:37;12.60;62.90
2439;DHT22;14509;47.992;7.848;2023-01-15T08:40:39;12.60;63.00
2439;DHT22;14509;47.992;7.848;2023-01-15T08:42:56;12.60;62.90
2439;DHT22;14509;47.992;7.848;2023-01-15T08:44:58;12.50;62.90
2439;DHT22;14509;47.992;7.848;2023-01-15T08:46:59;12.50;63.10
2439;DHT22;14509;47.992;7.848;2023-01-15T08:49:01;12.40;62.90
2439;DHT22;14509;47.992;7.848;2023-01-15T08:51:04;12.70;64.00
2439;DHT22;14509;47.992;7.848;2023-01-15T08:53:06;12.30;63.90
2439;DHT22;14509;47.992;7.848;2023-01-15T08:55:08;12.30;63.30
2439;DHT22;14509;47.992;7.848;2023-01-15T08:57:10;12.30;63.50
2439;DHT22;14509;47.992;7.848;2023-01-15T08:59:14;12.40;64.00
2439;DHT22;14509;47.992;7.848;2023-01-15T09:01:16;12.30;64.00
2439;DHT22;14509;47.992;7.848;2023-01-15T09:03:18;12.80;63.70
2439;DHT22;14509;47.992;7.848;2023-01-15T09:05:20;12.50;63.20
2439;DHT22;14509;47.992;7.848;2023-01-15T09:07:22;12.10;62.70
2439;DHT22;14509;47.992;7.848;2023-01-15T09:09:24;12.00;62.50
2439;DHT22;14509;47.992;7.848;2023-01-15T09:11:26;11.90;62.30
2439;DHT22;14509;47.992;7.848;2023-01-15T09:13:30;12.50;62.80
2439;DHT22;14509;47.992;7.848;2023-01-15T09:15:33;12.10;62.60
2439;DHT22;14509;47.992;7.848;2023-01-15T09:17:35;12.10;62.60
2439;DHT22;14509;47.992;7.848;2023-01-15T09:19:40;11.80;62.10
2439;DHT22;14509;47.992;7.848;2023-01-15T09:21:42;12.10;62.40
2439;DHT22;14509;47.992;7.848;2023-01-15T09:23:45;11.70;62.00
2439;DHT22;14509;47.992;7.848;2023-01-15T09:25:51;11.60;61.90
2439;DHT22;14509;47.992;7.848;2023-01-15T09:28:09;11.50;62.10
2439;DHT22;14509;47.992;7.848;2023-01-15T09:30:18;11.40;62.70
2439;DHT22;14509;47.992;7.848;2023-01-15T09:32:22;11.30;62.70
2439;DHT22;14509;47.992;7.848;2023-01-15T09:34:26;11.80;63.70
2439;DHT22;14509;47.992;7.848;2023-01-15T09:36:31;11.30;63.30
2439;DHT22;14509;47.992;7.848;2023-01-15T09:38:33;11.20;63.30
2439;DHT22;14509;47.992;7.848;2023-01-15T09:40:44;11.70;63.80
2439;DHT22;14509;47.992;7.848;2023-01-15T09:42:51;11.60;63.50
2439;DHT22;14509;47.992;7.848;2023-01-15T09:45:16;11.30;63.50
2439;DHT22;14509;47.992;7.848;2023-01-15T09:47:23;11.20;63.20
2439;DHT22;14509;47.992;7.848;2023-01-15T09:49:39;11.10;62.50
2439;DHT22;14509;47.992;7.848;2023-01-15T09:51:49;11.10;62.70
2439;DHT22;14509;47.992;7.848;2023-01-15T09:54:04;11.10;61.90
2439;DHT22;14509;47.992;7.848;2023-01-15T09:56:22;10.90;62.00
2439;DHT22;14509;47.992;7.848;2023-01-15T09:58:35;11.00;62.10
2439;DHT22;14509;47.992;7.848;2023-01-15T10:00:42;11.00;61.70
2439;DHT22;14509;47.992;7.848;2023-01-15T10:02:49;11.20;61.70
2439;DHT22;14509;47.992;7.848;2023-01-15T10:05:05;10.80;60.60
2439;DHT22;14509;47.992;7.848;2023-01-15T10:07:17;10.70;61.70
2439;DHT22;14509;47.992;7.848;2023-01-15T10:09:49;10.90;61.40
2439;DHT22;14509;47.992;7.848;2023-01-15T10:12:22;10.80;61.70
2439;DHT22;14509;47.992;7.848;2023-01-15T10:14:57;10.80;59.90
2439;DHT22;14509;47.992;7.848;2023-01-15T10:17:16;10.70;60.60
2439;DHT22;14509;47.992;7.848;2023-01-15T10:21:50;10.70;60.00
2439;DHT22;14509;47.992;7.848;2023-01-15T10:24:03;10.70;59.90
2439;DHT22;14509;47.992;7.848;2023-01-15T10:26:14;10.60;59.50
2439;DHT22;14509;47.992;7.848;2023-01-15T10:28:24;10.70;60.10
2439;DHT22;14509;47.992;7.848;2023-01-15T10:30:33;10.70;59.80
2439;DHT22;14509;47.992;7.848;2023-01-15T10:32:44;10.70;60.10
2439;DHT22;14509;47.992;7.848;2023-01-15T10:35:14;10.60;59.30
2439;DHT22;14509;47.992;7.848;2023-01-15T10:37:27;10.70;60.00
2439;DHT22;14509;47.992;7.848;2023-01-15T10:39:37;11.80;60.50
2439;DHT22;14509;47.992;7.848;2023-01-15T10:42:00;10.60;59.10
2439;DHT22;14509;47.992;7.848;2023-01-15T10:44:15;10.50;58.50
2439;DHT22;14509;47.992;7.848;2023-01-15T10:46:24;10.50;59.10
2439;DHT22;14509;47.992;7.848;2023-01-15T10:48:36;10.50;59.70
2439;DHT22;14509;47.992;7.848;2023-01-15T10:50:44;10.60;59.60
2439;DHT22;14509;47.992;7.848;2023-01-15T10:53:05;10.50;58.90
2439;DHT22;14509;47.992;7.848;2023-01-15T10:55:17;10.40;58.90
2439;DHT22;14509;47.992;7.848;2023-01-15T10:57:27;10.40;59.00
2439;DHT22;14509;47.992;7.848;2023-01-15T10:59:39;10.40;58.50
2439;DHT22;14509;47.992;7.848;2023-01-15T11:01:55;10.40;59.00
2439;DHT22;14509;47.992;7.848;2023-01-15T11:04:07;10.50;58.90
2439;DHT22;14509;47.992;7.848;2023-01-15T11:06:14;10.50;59.00
2439;DHT22;14509;47.992;7.848;2023-01-15T11:08:52;10.40;59.70
2439;DHT22;14509;47.992;7.848;2023-01-15T11:10:57;10.40;58.80
2439;DHT22;14509;47.992;7.848;2023-01-15T11:13:18;10.50;59.00
2439;DHT22;14509;47.992;7.848;2023-01-15T11:15:38;10.50;58.90
2439;DHT22;14509;47.992;7.848;2023-01-15T11:18:22;10.50;59.10
2439;DHT22;14509;47.992;7.848;2023-01-15T11:20:45;10.50;58.80
2439;DHT22;14509;47.992;7.848;2023-01-15T11:22:49;10.60;59.20
2439;DHT22;14509;47.992;7.848;2023-01-15T11:24:54;10.40;59.00
2439;DHT22;14509;47.992;7.848;2023-01-15T11:26:59;10.50;58.60
2439;DHT22;14509;47.992;7.848;2023-01-15T11:29:25;10.50;58.60
2439;DHT22;14509;47.992;7.848;2023-01-15T11:32:15;10.40;58.90
2439;DHT22;14509;47.992;7.848;2023-01-15T11:34:51;10.30;59.40
2439;DHT22;14509;47.992;7.848;2023-01-15T11:37:12;10.40;59.00
2439;DHT22;14509;47.992;7.848;2023-01-15T11:39:28;10.90;58.10
2439;DHT22;14509;47.992;7.848;2023-01-15T11:41:37;10.40;58.20
2439;DHT22;14509;47.992;7.848;2023-01-15T11:44:08;10.80;58.50
2439;DHT22;14509;47.992;7.848;2023-01-15T11:46:31;10.50;58.40
2439;DHT22;14509;47.992;7.848;2023-01-15T11:48:52;10.50;57.00
2439;DHT22;14509;47.992;7.848;2023-01-15T11:51:14;10.60;57.80
2439;DHT22;14509;47.992;7.848;2023-01-15T11:53:20;10.70;57.80
2439;DHT22;14509;47.992;7.848;2023-01-15T11:55:27;10.80;57.10
2439;DHT22;14509;47.992;7.848;2023-01-15T11:57:35;10.80;56.90
2439;DHT22;14509;47.992;7.848;2023-01-15T11:59:38;10.70;57.30
2439;DHT22;14509;47.992;7.848;2023-01-15T12:01:50;10.70;56.60
2439;DHT22;14509;47.992;7.848;2023-01-15T12:04:00;10.70;56.90
2439;DHT22;14509;47.992;7.848;2023-01-15T12:06:08;10.80;56.90
2439;DHT22;14509;47.992;7.848;2023-01-15T12:08:17;10.90;56.80
2439;DHT22;14509;47.992;7.848;2023-01-15T12:10:24;11.20;56.50
2439;DHT22;14509;47.992;7.848;2023-01-15T12:13:03;11.30;55.70
2439;DHT22;14509;47.992;7.848;2023-01-15T12:15:18;11.00;54.90
2439;DHT22;14509;47.992;7.848;2023-01-15T12:17:31;10.80;56.10
2439;DHT22;14509;47.992;7.848;2023-01-15T12:19:39;11.70;56.10
2439;DHT22;14509;47.992;7.848;2023-01-15T12:22:03;10.80;55.40
2439;DHT22;14509;47.992;7.848;2023-01-15T12:24:28;10.80;56.10
2439;DHT22;14509;47.992;7.848;2023-01-15T12:26:43;10.90;56.00
2439;DHT22;14509;47.992;7.848;2023-01-15T12:28:56;10.70;55.30
2439;DHT22;14509;47.992;7.848;2023-01-15T12:31:01;10.80;57.00
2439;DHT22;14509;47.992;7.848;2023-01-15T12:33:19;10.70;56.90
2439;DHT22;14509;47.992;7.848;2023-01-15T12:35:29;10.70;56.50
2439;DHT22;14509;47.992;7.848;2023-01-15T12:37:35;10.70;56.10
2439;DHT22;14509;47.992;7.848;2023-01-15T12:39:45;10.70;56.40
2439;DHT22;14509;47.992;7.848;2023-01-15T12:41:53;10.20;54.90
2439;DHT22;14509;47.992;7.848;2023-01-15T12:44:20;10.70;55.50
2439;DHT22;14509;47.992;7.848;2023-01-15T12:46:53;10.60;54.90
2439;DHT22;14509;47.992;7.848;2023-01-15T12:49:02;10.70;56.00
2439;DHT22;14509;47.992;7.848;2023-01-15T12:51:13;10.60;54.50
2439;DHT22;14509;47.992;7.848;2023-01-15T12:53:18;10.50;53.90
2439;DHT22;14509;47.992;7.848;2023-01-15T12:55:25;10.40;55.40
2439;DHT22;14509;47.992;7.848;2023-01-15T12:57:34;10.80;55.50
2439;DHT22;14509;47.992;7.848;2023-01-15T12:59:43;10.50;54.30
2439;DHT22;14509;47.992;7.848;2023-01-15T13:01:51;10.70;54.90
2439;DHT22;14509;47.992;7.848;2023-01-15T13:04:08;10.80;54.70
2439;DHT22;14509;47.992;7.848;2023-01-15T13:06:13;10.90;54.80
2439;DHT22;14509;47.992;7.848;2023-01-15T13:08:23;10.90;53.90
2439;DHT22;14509;47.992;7.848;2023-01-15T13:10:29;10.90;54.30
2439;DHT22;14509;47.992;7.848;2023-01-15T13:12:39;10.90;53.70
2439;DHT22;14509;47.992;7.848;2023-01-15T13:14:43;11.00;53.40
2439;DHT22;14509;47.992;7.848;2023-01-15T13:16:51;11.00;52.60
2439;DHT22;14509;47.992;7.848;2023-01-15T13:19:15;10.90;54.50
2439;DHT22;14509;47.992;7.848;2023-01-15T13:21:20;10.90;53.10
2439;DHT22;14509;47.992;7.848;2023-01-15T13:23:42;10.80;53.90
2439;DHT22;14509;47.992;7.848;2023-01-15T13:25:59;10.90;54.40
2439;DHT22;14509;47.992;7.848;2023-01-15T13:28:26;11.00;54.50
2439;DHT22;14509;47.992;7.848;2023-01-15T13:30:41;11.00;53.10
2439;DHT22;14509;47.992;7.848;2023-01-15T13:32:49;11.00;54.50
2439;DHT22;14509;47.992;7.848;2023-01-15T13:34:56;11.20;54.90
2439;DHT22;14509;47.992;7.848;2023-01-15T13:37:04;11.20;54.60
2439;DHT22;14509;47.992;7.848;2023-01-15T13:39:16;11.10;53.90
2439;DHT22;14509;47.992;7.848;2023-01-15T13:41:21;11.10;52.60